sensor_id;sensor_type;location;lat;lon;timestamp;P1;durP1;ratioP1;P2;durP2;ratioP2
65092;SDS011;52025;50.288;2.794;2022-07-23T04:35:48;12.98;;;8.23;;
65092;SDS011;52025;50.288;2.794;2022-07-23T04:38:13;13.55;;;8.50;;
65092;SDS011;52025;50.288;2.794;2022-07-23T04:40:39;13.23;;;8.60;;
65092;SDS011;52025;50.288;2.794;2022-07-23T04:43:04;12.40;;;8.48;;
65092;SDS011;52025;50.288;2.794;2022-07-23T04:45:30;12.63;;;8.40;;
65092;SDS011;52025;50.288;2.794;2022-07-23T04:47:55;11.85;;;8.18;;
65092;SDS011;52025;50.288;2.794;2022-07-23T04:50:21;11.00;;;7.75;;
65092;SDS011;52025;50.288;2.794;2022-07-23T04:52:47;13.95;;;8.55;;
65092;SDS011;52025;50.288;2.794;2022-07-23T04:55:12;13.25;;;8.45;;
65092;SDS011;52025;50.288;2.794;2022-07-23T04:57:38;12.93;;;8.48;;
65092;SDS011;52025;50.288;2.794;2022-07-23T05:00:03;12.40;;;8.00;;
65092;SDS011;52025;50.288;2.794;2022-07-23T05:02:28;13.65;;;8.75;;
65092;SDS011;52025;50.288;2.794;2022-07-23T05:04:54;11.68;;;8.15;;
65092;SDS011;52025;50.288;2.794;2022-07-23T05:07:19;12.10;;;8.03;;
65092;SDS011;52025;50.288;2.794;2022-07-23T05:09:44;13.43;;;8.18;;
65092;SDS011;52025;50.288;2.794;2022-07-23T05:12:09;11.90;;;8.63;;
65092;SDS011;52025;50.288;2.794;2022-07-23T05:14:35;13.00;;;8.98;;
65092;SDS011;52025;50.288;2.794;2022-07-23T05:17:00;14.95;;;8.80;;
65092;SDS011;52025;50.288;2.794;2022-07-23T05:19:25;13.65;;;8.45;;
65092;SDS011;52025;50.288;2.794;2022-07-23T05:21:50;12.82;;;8.23;;
65092;SDS011;52025;50.288;2.794;2022-07-23T05:24:16;13.30;;;8.70;;
65092;SDS011;52025;50.288;2.794;2022-07-23T05:26:41;14.27;;;8.93;;
65092;SDS011;52025;50.288;2.794;2022-07-23T05:29:06;14.88;;;9.02;;
65092;SDS011;52025;50.288;2.794;2022-07-23T05:31:31;14.13;;;8.55;;
65092;SDS011;52025;50.288;2.794;2022-07-23T05:33:57;15.03;;;9.60;;
65092;SDS011;52025;50.288;2.794;2022-07-23T05:36:22;12.38;;;9.23;;
65092;SDS011;52025;50.288;2.794;2022-07-23T05:38:47;15.90;;;9.63;;
65092;SDS011;52025;50.288;2.794;2022-07-23T05:41:12;13.80;;;9.37;;
65092;SDS011;52025;50.288;2.794;2022-07-23T05:43:38;15.50;;;9.82;;
65092;SDS011;52025;50.288;2.794;2022-07-23T05:46:03;14.57;;;10.23;;
65092;SDS011;52025;50.288;2.794;2022-07-23T05:48:28;13.75;;;10.02;;
65092;SDS011;52025;50.288;2.794;2022-07-23T05:50:53;12.98;;;9.45;;
65092;SDS011;52025;50.288;2.794;2022-07-23T05:53:19;14.10;;;9.53;;
65092;SDS011;52025;50.288;2.794;2022-07-23T05:55:44;12.95;;;9.30;;
65092;SDS011;52025;50.288;2.794;2022-07-23T05:58:09;14.88;;;10.38;;
65092;SDS011;52025;50.288;2.794;2022-07-23T06:00:34;15.25;;;9.75;;
65092;SDS011;52025;50.288;2.794;2022-07-23T06:03:00;13.43;;;9.15;;
65092;SDS011;52025;50.288;2.794;2022-07-23T06:05:25;16.33;;;10.85;;
65092;SDS011;52025;50.288;2.794;2022-07-23T06:07:50;14.45;;;10.23;;
65092;SDS011;52025;50.288;2.794;2022-07-23T06:10:16;17.95;;;10.40;;
65092;SDS011;52025;50.288;2.794;2022-07-23T06:12:41;18.30;;;10.35;;
65092;SDS011;52025;50.288;2.794;2022-07-23T06:15:07;13.27;;;9.48;;
65092;SDS011;52025;50.288;2.794;2022-07-23T06:17:32;15.40;;;9.93;;
65092;SDS011;52025;50.288;2.794;2022-07-23T06:19:58;13.60;;;9.32;;
65092;SDS011;52025;50.288;2.794;2022-07-23T06:22:23;14.82;;;9.98;;
65092;SDS011;52025;50.288;2.794;2022-07-23T06:24:48;15.90;;;9.95;;
65092;SDS011;52025;50.288;2.794;2022-07-23T06:27:14;13.75;;;10.05;;
65092;SDS011;52025;50.288;2.794;2022-07-23T06:29:39;16.50;;;11.60;;
65092;SDS011;52025;50.288;2.794;2022-07-23T06:32:08;17.17;;;10.10;;
65092;SDS011;52025;50.288;2.794;2022-07-23T06:34:33;16.25;;;10.88;;
65092;SDS011;52025;50.288;2.794;2022-07-23T06:36:59;16.05;;;11.38;;
65092;SDS011;52025;50.288;2.794;2022-07-23T06:39:24;17.45;;;10.38;;
65092;SDS011;52025;50.288;2.794;2022-07-23T06:41:50;18.50;;;12.15;;
65092;SDS011;52025;50.288;2.794;2022-07-23T06:44:16;15.40;;;10.40;;
65092;SDS011;52025;50.288;2.794;2022-07-23T06:46:41;14.90;;;10.45;;
65092;SDS011;52025;50.288;2.794;2022-07-23T06:49:07;14.43;;;10.02;;
65092;SDS011;52025;50.288;2.794;2022-07-23T06:51:32;17.38;;;10.18;;
65092;SDS011;52025;50.288;2.794;2022-07-23T06:53:57;15.18;;;9.75;;
65092;SDS011;52025;50.288;2.794;2022-07-23T06:56:23;15.27;;;9.85;;
65092;SDS011;52025;50.288;2.794;2022-07-23T06:58:48;17.92;;;10.98;;
65092;SDS011;52025;50.288;2.794;2022-07-23T07:01:14;16.65;;;10.85;;
65092;SDS011;52025;50.288;2.794;2022-07-23T07:03:39;16.58;;;10.20;;
65092;SDS011;52025;50.288;2.794;2022-07-23T07:06:04;16.15;;;10.82;;
65092;SDS011;52025;50.288;2.794;2022-07-23T07:08:30;17.02;;;10.95;;
65092;SDS011;52025;50.288;2.794;2022-07-23T07:10:55;14.98;;;10.10;;
65092;SDS011;52025;50.288;2.794;2022-07-23T07:13:20;16.80;;;11.15;;
65092;SDS011;52025;50.288;2.794;2022-07-23T07:15:45;14.65;;;9.63;;
65092;SDS011;52025;50.288;2.794;2022-07-23T07:18:11;14.48;;;9.23;;
65092;SDS011;52025;50.288;2.794;2022-07-23T07:20:36;16.27;;;10.93;;
65092;SDS011;52025;50.288;2.794;2022-07-23T07:23:01;14.75;;;9.45;;
65092;SDS011;52025;50.288;2.794;2022-07-23T07:25:26;14.85;;;10.55;;
65092;SDS011;52025;50.288;2.794;2022-07-23T07:27:52;15.02;;;9.13;;
65092;SDS011;52025;50.288;2.794;2022-07-23T07:30:17;15.20;;;10.55;;
65092;SDS011;52025;50.288;2.794;2022-07-23T07:32:42;15.48;;;10.18;;
65092;SDS011;52025;50.288;2.794;2022-07-23T07:35:08;17.25;;;11.57;;
65092;SDS011;52025;50.288;2.794;2022-07-23T07:37:33;17.27;;;10.88;;
65092;SDS011;52025;50.288;2.794;2022-07-23T07:39:58;15.43;;;10.10;;
65092;SDS011;52025;50.288;2.794;2022-07-23T07:42:24;18.50;;;11.07;;
65092;SDS011;52025;50.288;2.794;2022-07-23T07:44:49;17.20;;;9.90;;
65092;SDS011;52025;50.288;2.794;2022-07-23T07:47:14;15.98;;;10.80;;
65092;SDS011;52025;50.288;2.794;2022-07-23T07:49:40;15.95;;;10.52;;
65092;SDS011;52025;50.288;2.794;2022-07-23T07:52:06;18.58;;;11.32;;
65092;SDS011;52025;50.288;2.794;2022-07-23T07:54:31;19.30;;;11.90;;
65092;SDS011;52025;50.288;2.794;2022-07-23T07:56:57;17.02;;;10.48;;
65092;SDS011;52025;50.288;2.794;2022-07-23T07:59:22;16.02;;;11.23;;
65092;SDS011;52025;50.288;2.794;2022-07-23T08:01:47;18.40;;;11.23;;
65092;SDS011;52025;50.288;2.794;2022-07-23T08:04:13;17.58;;;11.98;;
65092;SDS011;52025;50.288;2.794;2022-07-23T08:06:38;15.68;;;10.60;;
65092;SDS011;52025;50.288;2.794;2022-07-23T08:09:03;16.73;;;10.57;;
65092;SDS011;52025;50.288;2.794;2022-07-23T08:11:28;17.90;;;10.80;;
65092;SDS011;52025;50.288;2.794;2022-07-23T08:13:53;18.98;;;10.98;;
65092;SDS011;52025;50.288;2.794;2022-07-23T08:16:19;16.33;;;9.45;;
65092;SDS011;52025;50.288;2.794;2022-07-23T08:18:44;17.93;;;12.47;;
65092;SDS011;52025;50.288;2.794;2022-07-23T08:21:09;16.40;;;11.35;;
65092;SDS011;52025;50.288;2.794;2022-07-23T08:23:34;16.88;;;10.68;;
65092;SDS011;52025;50.288;2.794;2022-07-23T08:26:00;14.73;;;10.13;;
65092;SDS011;52025;50.288;2.794;2022-07-23T08:28:26;13.82;;;9.20;;
65092;SDS011;52025;50.288;2.794;2022-07-23T08:30:51;13.00;;;8.25;;
65092;SDS011;52025;50.288;2.794;2022-07-23T08:33:16;13.50;;;8.77;;
65092;SDS011;52025;50.288;2.794;2022-07-23T08:35:43;12.68;;;8.43;;
65092;SDS011;52025;50.288;2.794;2022-07-23T08:38:11;11.80;;;8.27;;
65092;SDS011;52025;50.288;2.794;2022-07-23T08:40:40;13.90;;;8.55;;
65092;SDS011;52025;50.288;2.794;2022-07-23T08:43:09;14.20;;;9.18;;
65092;SDS011;52025;50.288;2.794;2022-07-23T08:45:35;13.73;;;8.30;;
65092;SDS011;52025;50.288;2.794;2022-07-23T08:48:01;12.18;;;7.10;;
65092;SDS011;52025;50.288;2.794;2022-07-23T08:50:27;10.60;;;6.60;;
65092;SDS011;52025;50.288;2.794;2022-07-23T08:52:53;10.32;;;6.53;;
65092;SDS011;52025;50.288;2.794;2022-07-23T08:55:20;12.25;;;7.28;;
65092;SDS011;52025;50.288;2.794;2022-07-23T08:57:47;9.57;;;6.50;;
65092;SDS011;52025;50.288;2.794;2022-07-23T09:00:12;11.60;;;7.20;;
65092;SDS011;52025;50.288;2.794;2022-07-23T09:02:38;11.88;;;7.68;;
65092;SDS011;52025;50.288;2.794;2022-07-23T09:05:04;12.15;;;7.05;;
65092;SDS011;52025;50.288;2.794;2022-07-23T09:07:31;10.88;;;6.75;;
65092;SDS011;52025;50.288;2.794;2022-07-23T09:10:09;12.90;;;7.50;;
65092;SDS011;52025;50.288;2.794;2022-07-23T09:12:34;9.77;;;5.82;;
65092;SDS011;52025;50.288;2.794;2022-07-23T09:15:06;9.25;;;6.10;;
65092;SDS011;52025;50.288;2.794;2022-07-23T09:17:42;9.57;;;6.67;;
65092;SDS011;52025;50.288;2.794;2022-07-23T09:20:08;12.88;;;8.32;;
65092;SDS011;52025;50.288;2.794;2022-07-23T09:22:34;12.93;;;7.70;;
65092;SDS011;52025;50.288;2.794;2022-07-23T09:27:44;6.15;;;3.60;;
65092;SDS011;52025;50.288;2.794;2022-07-23T09:30:09;5.03;;;3.08;;
65092;SDS011;52025;50.288;2.794;2022-07-23T09:32:35;7.78;;;4.47;;
65092;SDS011;52025;50.288;2.794;2022-07-23T09:35:00;6.60;;;3.80;;
65092;SDS011;52025;50.288;2.794;2022-07-23T09:37:25;11.02;;;7.05;;
65092;SDS011;52025;50.288;2.794;2022-07-23T09:39:50;8.35;;;5.43;;
65092;SDS011;52025;50.288;2.794;2022-07-23T09:42:23;6.53;;;3.13;;
65092;SDS011;52025;50.288;2.794;2022-07-23T09:44:56;6.90;;;3.83;;
65092;SDS011;52025;50.288;2.794;2022-07-23T09:47:22;4.70;;;2.63;;
65092;SDS011;52025;50.288;2.794;2022-07-23T09:52:36;9.75;;;5.72;;
65092;SDS011;52025;50.288;2.794;2022-07-23T09:55:05;7.18;;;4.60;;
65092;SDS011;52025;50.288;2.794;2022-07-23T09:57:33;6.45;;;3.58;;
65092;SDS011;52025;50.288;2.794;2022-07-23T10:00:00;5.45;;;3.15;;
65092;SDS011;52025;50.288;2.794;2022-07-23T10:02:26;7.43;;;4.20;;
65092;SDS011;52025;50.288;2.794;2022-07-23T10:04:52;10.57;;;6.65;;
65092;SDS011;52025;50.288;2.794;2022-07-23T10:07:18;10.02;;;6.15;;
65092;SDS011;52025;50.288;2.794;2022-07-23T10:09:46;11.63;;;6.25;;
65092;SDS011;52025;50.288;2.794;2022-07-23T10:12:13;10.98;;;6.63;;
65092;SDS011;52025;50.288;2.794;2022-07-23T10:14:57;10.30;;;5.72;;
65092;SDS011;52025;50.288;2.794;2022-07-23T10:17:22;6.00;;;3.63;;
65092;SDS011;52025;50.288;2.794;2022-07-23T10:19:48;6.43;;;3.63;;
65092;SDS011;52025;50.288;2.794;2022-07-23T10:22:14;6.40;;;3.72;;
65092;SDS011;52025;50.288;2.794;2022-07-23T10:29:58;5.32;;;2.60;;
65092;SDS011;52025;50.288;2.794;2022-07-23T10:32:40;6.43;;;3.00;;
65092;SDS011;52025;50.288;2.794;2022-07-23T10:35:21;3.88;;;2.35;;
65092;SDS011;52025;50.288;2.794;2022-07-23T10:37:51;5.50;;;2.85;;
65092;SDS011;52025;50.288;2.794;2022-07-23T10:40:19;7.38;;;4.43;;
65092;SDS011;52025;50.288;2.794;2022-07-23T10:42:47;7.13;;;3.50;;
65092;SDS011;52025;50.288;2.794;2022-07-23T10:47:47;5.25;;;3.03;;
65092;SDS011;52025;50.288;2.794;2022-07-23T10:50:19;5.15;;;2.60;;
65092;SDS011;52025;50.288;2.794;2022-07-23T10:57:54;5.53;;;3.07;;
65092;SDS011;52025;50.288;2.794;2022-07-23T11:00:20;4.53;;;2.60;;
65092;SDS011;52025;50.288;2.794;2022-07-23T11:02:47;6.13;;;2.90;;
65092;SDS011;52025;50.288;2.794;2022-07-23T11:05:16;6.93;;;4.00;;
65092;SDS011;52025;50.288;2.794;2022-07-23T11:10:39;3.53;;;1.70;;
65092;SDS011;52025;50.288;2.794;2022-07-23T11:18:14;5.20;;;3.00;;
65092;SDS011;52025;50.288;2.794;2022-07-23T11:20:39;4.47;;;2.17;;
65092;SDS011;52025;50.288;2.794;2022-07-23T11:23:04;6.63;;;3.00;;
65092;SDS011;52025;50.288;2.794;2022-07-23T11:25:33;10.95;;;3.70;;
65092;SDS011;52025;50.288;2.794;2022-07-23T11:28:13;6.22;;;3.30;;
65092;SDS011;52025;50.288;2.794;2022-07-23T11:30:40;4.88;;;2.78;;
65092;SDS011;52025;50.288;2.794;2022-07-23T11:35:34;6.22;;;3.17;;
65092;SDS011;52025;50.288;2.794;2022-07-23T11:38:07;6.70;;;3.65;;
65092;SDS011;52025;50.288;2.794;2022-07-23T11:40:33;8.02;;;4.30;;
65092;SDS011;52025;50.288;2.794;2022-07-23T11:43:03;5.72;;;3.13;;
65092;SDS011;52025;50.288;2.794;2022-07-23T11:45:33;5.40;;;3.05;;
65092;SDS011;52025;50.288;2.794;2022-07-23T11:47:59;4.43;;;2.65;;
65092;SDS011;52025;50.288;2.794;2022-07-23T11:50:24;3.95;;;2.58;;
65092;SDS011;52025;50.288;2.794;2022-07-23T11:52:50;4.22;;;2.53;;
65092;SDS011;52025;50.288;2.794;2022-07-23T11:55:16;6.97;;;3.47;;
65092;SDS011;52025;50.288;2.794;2022-07-23T11:57:41;4.85;;;2.92;;
65092;SDS011;52025;50.288;2.794;2022-07-23T12:02:34;5.38;;;2.95;;
65092;SDS011;52025;50.288;2.794;2022-07-23T12:05:00;6.45;;;3.92;;
65092;SDS011;52025;50.288;2.794;2022-07-23T12:07:32;4.20;;;2.10;;
65092;SDS011;52025;50.288;2.794;2022-07-23T12:09:58;6.10;;;3.80;;
65092;SDS011;52025;50.288;2.794;2022-07-23T12:12:24;8.77;;;4.47;;
65092;SDS011;52025;50.288;2.794;2022-07-23T12:14:51;5.20;;;3.20;;
65092;SDS011;52025;50.288;2.794;2022-07-23T12:17:16;7.07;;;4.00;;
65092;SDS011;52025;50.288;2.794;2022-07-23T12:19:41;5.45;;;3.15;;
65092;SDS011;52025;50.288;2.794;2022-07-23T12:22:07;6.22;;;3.05;;
65092;SDS011;52025;50.288;2.794;2022-07-23T12:24:51;3.97;;;2.33;;
65092;SDS011;52025;50.288;2.794;2022-07-23T12:27:19;6.90;;;3.90;;
65092;SDS011;52025;50.288;2.794;2022-07-23T12:29:45;7.97;;;3.72;;
65092;SDS011;52025;50.288;2.794;2022-07-23T12:32:21;7.40;;;4.18;;
65092;SDS011;52025;50.288;2.794;2022-07-23T12:35:05;4.50;;;3.00;;
65092;SDS011;52025;50.288;2.794;2022-07-23T12:37:35;5.05;;;3.00;;
65092;SDS011;52025;50.288;2.794;2022-07-23T12:42:45;4.68;;;2.75;;
65092;SDS011;52025;50.288;2.794;2022-07-23T12:45:11;6.45;;;3.30;;
65092;SDS011;52025;50.288;2.794;2022-07-23T12:47:53;4.10;;;2.42;;
65092;SDS011;52025;50.288;2.794;2022-07-23T12:50:35;2.88;;;1.60;;
65092;SDS011;52025;50.288;2.794;2022-07-23T12:53:04;4.75;;;3.08;;
65092;SDS011;52025;50.288;2.794;2022-07-23T12:55:30;5.68;;;3.70;;
65092;SDS011;52025;50.288;2.794;2022-07-23T12:58:05;5.97;;;3.40;;
65092;SDS011;52025;50.288;2.794;2022-07-23T13:00:31;6.28;;;3.55;;
65092;SDS011;52025;50.288;2.794;2022-07-23T13:02:57;6.32;;;3.28;;
65092;SDS011;52025;50.288;2.794;2022-07-23T13:05:22;4.73;;;3.00;;
65092;SDS011;52025;50.288;2.794;2022-07-23T13:07:47;5.78;;;3.30;;
65092;SDS011;52025;50.288;2.794;2022-07-23T13:10:12;5.87;;;3.93;;
65092;SDS011;52025;50.288;2.794;2022-07-23T13:12:38;6.20;;;3.38;;
65092;SDS011;52025;50.288;2.794;2022-07-23T13:15:03;5.15;;;3.20;;
65092;SDS011;52025;50.288;2.794;2022-07-23T13:17:29;5.40;;;3.60;;
65092;SDS011;52025;50.288;2.794;2022-07-23T13:19:54;3.63;;;2.30;;
65092;SDS011;52025;50.288;2.794;2022-07-23T13:22:19;4.22;;;2.38;;
65092;SDS011;52025;50.288;2.794;2022-07-23T13:24:44;5.07;;;3.40;;
65092;SDS011;52025;50.288;2.794;2022-07-23T13:27:09;5.30;;;3.10;;
65092;SDS011;52025;50.288;2.794;2022-07-23T13:29:35;5.13;;;3.00;;
65092;SDS011;52025;50.288;2.794;2022-07-23T13:32:00;4.80;;;3.37;;
65092;SDS011;52025;50.288;2.794;2022-07-23T13:34:25;4.07;;;2.42;;
65092;SDS011;52025;50.288;2.794;2022-07-23T13:36:50;2.70;;;1.50;;
65092;SDS011;52025;50.288;2.794;2022-07-23T13:39:16;4.35;;;2.22;;
65092;SDS011;52025;50.288;2.794;2022-07-23T13:41:41;2.92;;;1.73;;
65092;SDS011;52025;50.288;2.794;2022-07-23T13:44:06;5.40;;;3.60;;
65092;SDS011;52025;50.288;2.794;2022-07-23T13:46:32;4.88;;;3.20;;
65092;SDS011;52025;50.288;2.794;2022-07-23T13:48:57;5.23;;;3.50;;
65092;SDS011;52025;50.288;2.794;2022-07-23T13:51:22;3.40;;;2.10;;
65092;SDS011;52025;50.288;2.794;2022-07-23T13:53:49;4.63;;;2.50;;
65092;SDS011;52025;50.288;2.794;2022-07-23T13:56:14;2.30;;;1.40;;
65092;SDS011;52025;50.288;2.794;2022-07-23T13:58:39;1.75;;;1.00;;
65092;SDS011;52025;50.288;2.794;2022-07-23T14:01:05;6.07;;;3.60;;
65092;SDS011;52025;50.288;2.794;2022-07-23T14:03:30;6.13;;;3.45;;
65092;SDS011;52025;50.288;2.794;2022-07-23T14:05:56;5.50;;;3.47;;
65092;SDS011;52025;50.288;2.794;2022-07-23T14:08:21;3.90;;;2.20;;
65092;SDS011;52025;50.288;2.794;2022-07-23T14:10:46;3.80;;;2.50;;
65092;SDS011;52025;50.288;2.794;2022-07-23T14:13:11;5.38;;;3.25;;
65092;SDS011;52025;50.288;2.794;2022-07-23T14:15:37;6.20;;;4.10;;
65092;SDS011;52025;50.288;2.794;2022-07-23T14:18:05;6.25;;;3.40;;
65092;SDS011;52025;50.288;2.794;2022-07-23T14:20:30;6.82;;;4.28;;
65092;SDS011;52025;50.288;2.794;2022-07-23T14:22:55;7.47;;;4.25;;
65092;SDS011;52025;50.288;2.794;2022-07-23T14:25:23;5.57;;;3.75;;
65092;SDS011;52025;50.288;2.794;2022-07-23T14:27:48;6.55;;;3.88;;
65092;SDS011;52025;50.288;2.794;2022-07-23T14:30:13;5.70;;;3.50;;
65092;SDS011;52025;50.288;2.794;2022-07-23T14:32:40;6.03;;;3.92;;
65092;SDS011;52025;50.288;2.794;2022-07-23T14:35:05;5.97;;;3.85;;
65092;SDS011;52025;50.288;2.794;2022-07-23T14:37:31;6.32;;;4.20;;
65092;SDS011;52025;50.288;2.794;2022-07-23T14:39:57;6.45;;;4.20;;
65092;SDS011;52025;50.288;2.794;2022-07-23T14:42:22;8.43;;;4.18;;
65092;SDS011;52025;50.288;2.794;2022-07-23T14:44:48;8.53;;;4.63;;
65092;SDS011;52025;50.288;2.794;2022-07-23T14:47:13;7.22;;;4.03;;
65092;SDS011;52025;50.288;2.794;2022-07-23T14:49:38;7.25;;;3.97;;
65092;SDS011;52025;50.288;2.794;2022-07-23T14:52:04;5.75;;;4.00;;
65092;SDS011;52025;50.288;2.794;2022-07-23T14:54:30;6.15;;;3.95;;
65092;SDS011;52025;50.288;2.794;2022-07-23T14:56:56;6.07;;;3.80;;
65092;SDS011;52025;50.288;2.794;2022-07-23T14:59:21;8.45;;;5.50;;
65092;SDS011;52025;50.288;2.794;2022-07-23T15:01:46;6.63;;;4.25;;
65092;SDS011;52025;50.288;2.794;2022-07-23T15:04:12;8.07;;;5.15;;
65092;SDS011;52025;50.288;2.794;2022-07-23T15:06:37;5.63;;;3.77;;
65092;SDS011;52025;50.288;2.794;2022-07-23T15:09:04;5.53;;;3.58;;
65092;SDS011;52025;50.288;2.794;2022-07-23T15:11:29;7.97;;;4.53;;
65092;SDS011;52025;50.288;2.794;2022-07-23T15:13:58;7.13;;;4.82;;
65092;SDS011;52025;50.288;2.794;2022-07-23T15:16:23;6.82;;;4.13;;
65092;SDS011;52025;50.288;2.794;2022-07-23T15:18:48;8.90;;;4.60;;
65092;SDS011;52025;50.288;2.794;2022-07-23T15:21:13;5.63;;;3.75;;
65092;SDS011;52025;50.288;2.794;2022-07-23T15:23:39;7.22;;;3.97;;
65092;SDS011;52025;50.288;2.794;2022-07-23T15:26:04;11.32;;;5.53;;
65092;SDS011;52025;50.288;2.794;2022-07-23T15:28:30;8.48;;;4.78;;
65092;SDS011;52025;50.288;2.794;2022-07-23T15:30:55;7.90;;;4.40;;
65092;SDS011;52025;50.288;2.794;2022-07-23T15:33:20;10.15;;;5.70;;
65092;SDS011;52025;50.288;2.794;2022-07-23T15:35:46;8.50;;;6.50;;
65092;SDS011;52025;50.288;2.794;2022-07-23T15:38:11;9.30;;;5.10;;
65092;SDS011;52025;50.288;2.794;2022-07-23T15:40:36;10.60;;;5.78;;
65092;SDS011;52025;50.288;2.794;2022-07-23T15:43:02;7.43;;;5.15;;
65092;SDS011;52025;50.288;2.794;2022-07-23T15:45:27;8.73;;;5.45;;
65092;SDS011;52025;50.288;2.794;2022-07-23T15:47:53;8.43;;;5.28;;
65092;SDS011;52025;50.288;2.794;2022-07-23T15:50:19;13.13;;;6.43;;
65092;SDS011;52025;50.288;2.794;2022-07-23T15:52:44;10.65;;;7.20;;
65092;SDS011;52025;50.288;2.794;2022-07-23T15:55:09;7.55;;;5.20;;
65092;SDS011;52025;50.288;2.794;2022-07-23T15:57:35;9.57;;;5.83;;
65092;SDS011;52025;50.288;2.794;2022-07-23T16:00:00;9.60;;;5.95;;
65092;SDS011;52025;50.288;2.794;2022-07-23T16:02:25;7.75;;;4.72;;
65092;SDS011;52025;50.288;2.794;2022-07-23T16:04:51;8.15;;;4.50;;
65092;SDS011;52025;50.288;2.794;2022-07-23T16:07:17;7.60;;;4.97;;
65092;SDS011;52025;50.288;2.794;2022-07-23T16:09:43;10.68;;;6.05;;
65092;SDS011;52025;50.288;2.794;2022-07-23T16:12:08;9.35;;;5.25;;
65092;SDS011;52025;50.288;2.794;2022-07-23T16:14:34;8.30;;;5.47;;
65092;SDS011;52025;50.288;2.794;2022-07-23T16:16:59;8.73;;;5.70;;
65092;SDS011;52025;50.288;2.794;2022-07-23T16:19:24;8.52;;;4.88;;
65092;SDS011;52025;50.288;2.794;2022-07-23T16:21:50;9.33;;;5.20;;
65092;SDS011;52025;50.288;2.794;2022-07-23T16:24:15;7.78;;;4.60;;
65092;SDS011;52025;50.288;2.794;2022-07-23T16:26:40;6.90;;;4.05;;
65092;SDS011;52025;50.288;2.794;2022-07-23T16:29:05;8.23;;;4.88;;
65092;SDS011;52025;50.288;2.794;2022-07-23T16:31:30;9.80;;;4.70;;
65092;SDS011;52025;50.288;2.794;2022-07-23T16:33:56;8.27;;;4.85;;
65092;SDS011;52025;50.288;2.794;2022-07-23T16:36:22;9.23;;;4.90;;
65092;SDS011;52025;50.288;2.794;2022-07-23T16:38:47;7.18;;;4.70;;
65092;SDS011;52025;50.288;2.794;2022-07-23T16:41:12;6.70;;;4.43;;
65092;SDS011;52025;50.288;2.794;2022-07-23T16:43:38;8.40;;;4.45;;
65092;SDS011;52025;50.288;2.794;2022-07-23T16:46:03;6.07;;;3.92;;
65092;SDS011;52025;50.288;2.794;2022-07-23T16:48:29;9.88;;;4.40;;
65092;SDS011;52025;50.288;2.794;2022-07-23T16:50:54;6.35;;;4.18;;
65092;SDS011;52025;50.288;2.794;2022-07-23T16:53:19;8.45;;;4.22;;
65092;SDS011;52025;50.288;2.794;2022-07-23T16:55:45;9.13;;;4.53;;
65092;SDS011;52025;50.288;2.794;2022-07-23T16:58:10;9.73;;;4.75;;
65092;SDS011;52025;50.288;2.794;2022-07-23T17:00:35;6.43;;;4.03;;
65092;SDS011;52025;50.288;2.794;2022-07-23T17:03:01;6.87;;;4.27;;
65092;SDS011;52025;50.288;2.794;2022-07-23T17:05:26;6.63;;;3.58;;
65092;SDS011;52025;50.288;2.794;2022-07-23T17:07:51;7.95;;;4.80;;
65092;SDS011;52025;50.288;2.794;2022-07-23T17:10:18;6.32;;;3.67;;
65092;SDS011;52025;50.288;2.794;2022-07-23T17:12:44;4.88;;;3.20;;
65092;SDS011;52025;50.288;2.794;2022-07-23T17:15:09;8.50;;;3.88;;
65092;SDS011;52025;50.288;2.794;2022-07-23T17:17:35;7.68;;;4.38;;
65092;SDS011;52025;50.288;2.794;2022-07-23T17:20:00;8.38;;;4.75;;
65092;SDS011;52025;50.288;2.794;2022-07-23T17:22:26;7.50;;;3.50;;
65092;SDS011;52025;50.288;2.794;2022-07-23T17:24:51;6.82;;;3.72;;
65092;SDS011;52025;50.288;2.794;2022-07-23T17:27:16;8.37;;;4.83;;
65092;SDS011;52025;50.288;2.794;2022-07-23T17:29:41;7.55;;;4.20;;
65092;SDS011;52025;50.288;2.794;2022-07-23T17:32:07;7.80;;;3.83;;
65092;SDS011;52025;50.288;2.794;2022-07-23T17:34:32;7.72;;;4.38;;
65092;SDS011;52025;50.288;2.794;2022-07-23T17:36:57;7.22;;;3.65;;
65092;SDS011;52025;50.288;2.794;2022-07-23T17:39:23;6.90;;;3.95;;
65092;SDS011;52025;50.288;2.794;2022-07-23T17:41:48;8.30;;;4.30;;
65092;SDS011;52025;50.288;2.794;2022-07-23T17:44:17;7.72;;;4.40;;
65092;SDS011;52025;50.288;2.794;2022-07-23T17:46:43;8.88;;;4.30;;
65092;SDS011;52025;50.288;2.794;2022-07-23T17:49:09;7.70;;;3.53;;
65092;SDS011;52025;50.288;2.794;2022-07-23T17:51:34;6.80;;;3.60;;
65092;SDS011;52025;50.288;2.794;2022-07-23T17:54:00;8.35;;;3.85;;
65092;SDS011;52025;50.288;2.794;2022-07-23T17:56:25;8.50;;;3.80;;
65092;SDS011;52025;50.288;2.794;2022-07-23T17:58:50;7.38;;;3.88;;
65092;SDS011;52025;50.288;2.794;2022-07-23T18:01:16;9.07;;;4.13;;
65092;SDS011;52025;50.288;2.794;2022-07-23T18:03:41;6.35;;;3.92;;
65092;SDS011;52025;50.288;2.794;2022-07-23T18:06:09;6.57;;;3.40;;
65092;SDS011;52025;50.288;2.794;2022-07-23T18:08:34;6.30;;;4.35;;
65092;SDS011;52025;50.288;2.794;2022-07-23T18:10:59;6.93;;;4.18;;
65092;SDS011;52025;50.288;2.794;2022-07-23T18:13:25;7.20;;;3.95;;
65092;SDS011;52025;50.288;2.794;2022-07-23T18:15:50;5.38;;;3.28;;
65092;SDS011;52025;50.288;2.794;2022-07-23T18:18:15;6.03;;;3.77;;
65092;SDS011;52025;50.288;2.794;2022-07-23T18:20:41;8.33;;;4.13;;
65092;SDS011;52025;50.288;2.794;2022-07-23T18:23:06;8.60;;;4.30;;
65092;SDS011;52025;50.288;2.794;2022-07-23T18:25:31;7.07;;;3.90;;
65092;SDS011;52025;50.288;2.794;2022-07-23T18:27:57;7.07;;;4.03;;
65092;SDS011;52025;50.288;2.794;2022-07-23T18:30:22;9.02;;;4.18;;
65092;SDS011;52025;50.288;2.794;2022-07-23T18:32:47;8.35;;;4.10;;
65092;SDS011;52025;50.288;2.794;2022-07-23T18:35:12;6.22;;;4.60;;
65092;SDS011;52025;50.288;2.794;2022-07-23T18:37:38;5.90;;;3.75;;
65092;SDS011;52025;50.288;2.794;2022-07-23T18:40:04;6.32;;;4.00;;
65092;SDS011;52025;50.288;2.794;2022-07-23T18:42:30;9.10;;;4.60;;
65092;SDS011;52025;50.288;2.794;2022-07-23T18:44:55;7.55;;;3.92;;
65092;SDS011;52025;50.288;2.794;2022-07-23T18:47:21;8.40;;;5.50;;
65092;SDS011;52025;50.288;2.794;2022-07-23T18:49:46;7.63;;;3.60;;
65092;SDS011;52025;50.288;2.794;2022-07-23T18:52:11;7.97;;;4.43;;
65092;SDS011;52025;50.288;2.794;2022-07-23T18:54:36;9.13;;;4.88;;
65092;SDS011;52025;50.288;2.794;2022-07-23T18:57:02;6.28;;;3.85;;
65092;SDS011;52025;50.288;2.794;2022-07-23T18:59:29;8.40;;;4.93;;
65092;SDS011;52025;50.288;2.794;2022-07-23T19:01:54;8.50;;;5.18;;
65092;SDS011;52025;50.288;2.794;2022-07-23T19:04:20;6.72;;;4.35;;
65092;SDS011;52025;50.288;2.794;2022-07-23T19:06:46;7.50;;;4.57;;
65092;SDS011;52025;50.288;2.794;2022-07-23T19:09:12;8.65;;;4.05;;
65092;SDS011;52025;50.288;2.794;2022-07-23T19:11:37;6.38;;;3.47;;
65092;SDS011;52025;50.288;2.794;2022-07-23T19:14:04;6.35;;;3.70;;
65092;SDS011;52025;50.288;2.794;2022-07-23T19:16:29;7.35;;;3.95;;
65092;SDS011;52025;50.288;2.794;2022-07-23T19:18:54;8.30;;;5.03;;
65092;SDS011;52025;50.288;2.794;2022-07-23T19:21:20;8.52;;;4.82;;
65092;SDS011;52025;50.288;2.794;2022-07-23T19:23:45;12.00;;;4.55;;
65092;SDS011;52025;50.288;2.794;2022-07-23T19:26:10;9.05;;;4.05;;
65092;SDS011;52025;50.288;2.794;2022-07-23T19:28:35;6.82;;;3.92;;
65092;SDS011;52025;50.288;2.794;2022-07-23T19:31:01;9.90;;;4.05;;
65092;SDS011;52025;50.288;2.794;2022-07-23T19:33:26;7.78;;;3.83;;
65092;SDS011;52025;50.288;2.794;2022-07-23T19:35:51;9.50;;;4.17;;
65092;SDS011;52025;50.288;2.794;2022-07-23T19:38:17;8.05;;;3.78;;
65092;SDS011;52025;50.288;2.794;2022-07-23T19:40:42;6.60;;;3.90;;
65092;SDS011;52025;50.288;2.794;2022-07-23T19:43:08;5.63;;;3.80;;